createdAt,value
2018-08-17T00:00:45.895Z,99707.99
2018-08-17T00:03:11.836Z,99710.41
2018-08-17T00:05:37.782Z,99706.53
2018-08-17T00:08:03.765Z,99705.59
2018-08-17T00:10:29.712Z,99698.66
2018-08-17T00:12:55.664Z,99702.56
2018-08-17T00:15:21.616Z,99699.60
2018-08-17T00:17:47.571Z,99693.42
2018-08-17T00:20:13.524Z,99698.69
2018-08-17T00:22:39.476Z,99697.65
2018-08-17T00:25:05.439Z,99692.91
2018-08-17T00:27:31.407Z,99695.53
2018-08-17T00:29:57.357Z,99690.34
2018-08-17T00:32:23.312Z,99687.20
2018-08-17T00:34:49.242Z,99686.75
2018-08-17T00:37:15.196Z,99687.17
2018-08-17T00:39:41.150Z,99688.74
2018-08-17T00:42:07.107Z,99687.17
2018-08-17T00:44:33.047Z,99681.95
2018-08-17T00:46:59.982Z,99686.38
2018-08-17T00:49:26.006Z,99687.21
2018-08-17T00:51:51.932Z,99682.59
2018-08-17T00:54:17.863Z,99686.53
2018-08-17T00:56:43.791Z,99682.42
2018-08-17T00:59:09.740Z,99690.05
2018-08-17T01:01:35.713Z,99688.16
2018-08-17T01:04:01.856Z,99687.40
2018-08-17T01:06:27.826Z,99685.29
2018-08-17T01:08:53.768Z,99693.27
2018-08-17T01:11:19.723Z,99692.42
2018-08-17T01:13:45.695Z,99691.04
2018-08-17T01:16:11.623Z,99688.59
2018-08-17T01:18:37.580Z,99688.78
2018-08-17T01:21:03.515Z,99683.52
2018-08-17T01:23:29.465Z,99685.33
2018-08-17T01:25:55.419Z,99689.03
2018-08-17T01:28:21.357Z,99689.03
2018-08-17T01:30:47.330Z,99690.75
2018-08-17T01:33:13.328Z,99686.61
2018-08-17T01:35:39.281Z,99684.95
2018-08-17T01:38:05.232Z,99689.03
2018-08-17T01:40:31.228Z,99687.77
2018-08-17T01:42:57.182Z,99687.67
2018-08-17T01:45:23.166Z,99688.68
2018-08-17T01:47:49.110Z,99677.98
2018-08-17T01:50:15.080Z,99685.86
2018-08-17T01:52:41.032Z,99682.52
2018-08-17T01:55:07.011Z,99682.72
2018-08-17T01:57:33.000Z,99685.17
2018-08-17T01:59:58.964Z,99684.02
2018-08-17T02:02:24.901Z,99685.59
2018-08-17T02:04:50.864Z,99686.20
2018-08-17T02:07:16.844Z,99676.95
2018-08-17T02:09:42.825Z,99679.22
2018-08-17T02:12:08.764Z,99679.22
2018-08-17T02:14:34.744Z,99677.22
2018-08-17T02:17:00.691Z,99674.03
2018-08-17T02:19:26.635Z,99678.10
2018-08-17T02:21:52.587Z,99674.56
2018-08-17T02:24:18.603Z,99672.70
2018-08-17T02:26:44.545Z,99673.82
2018-08-17T02:29:10.484Z,99670.12
2018-08-17T02:31:36.448Z,99670.60
2018-08-17T02:34:02.424Z,99675.83
2018-08-17T02:36:28.361Z,99683.05
2018-08-17T02:38:54.308Z,99674.36
2018-08-17T02:41:20.264Z,99672.07
2018-08-17T02:43:46.222Z,99670.97
2018-08-17T02:46:12.148Z,99676.73
2018-08-17T02:48:38.103Z,99674.43
2018-08-17T02:51:05.043Z,99675.45
2018-08-17T02:53:30.965Z,99673.54
2018-08-17T02:55:56.924Z,99674.47
2018-08-17T02:58:22.881Z,99673.25
2018-08-17T03:00:48.832Z,99673.09
2018-08-17T03:03:14.774Z,99670.70
2018-08-17T03:05:40.752Z,99659.61
2018-08-17T03:08:06.718Z,99667.39
2018-08-17T03:10:32.687Z,99672.34
2018-08-17T03:12:58.623Z,99671.66
2018-08-17T03:15:24.597Z,99663.03
2018-08-17T03:17:50.529Z,99663.19
2018-08-17T03:20:16.490Z,99673.28
2018-08-17T03:22:42.558Z,99671.98
2018-08-17T03:25:08.567Z,99672.66
2018-08-17T03:27:34.497Z,99675.30
2018-08-17T03:30:00.566Z,99674.25
2018-08-17T03:32:26.520Z,99678.23
2018-08-17T03:34:52.482Z,99671.56
2018-08-17T03:37:18.495Z,99672.95
2018-08-17T03:39:44.428Z,99676.22
2018-08-17T03:42:10.393Z,99677.70
2018-08-17T03:44:36.387Z,99675.37
2018-08-17T03:47:02.329Z,99680.06
2018-08-17T03:49:28.292Z,99682.16
2018-08-17T03:51:54.241Z,99675.34
2018-08-17T03:54:20.192Z,99676.31
2018-08-17T03:56:46.141Z,99682.59
2018-08-17T03:59:12.136Z,99679.20
2018-08-17T04:01:38.102Z,99681.96
2018-08-17T04:04:04.130Z,99683.16
2018-08-17T04:06:30.133Z,99682.89
2018-08-17T04:08:56.098Z,99681.91
2018-08-17T04:11:22.047Z,99689.75
2018-08-17T04:13:47.977Z,99684.40
2018-08-17T04:16:13.930Z,99692.10
2018-08-17T04:18:39.876Z,99694.81
2018-08-17T04:21:05.825Z,99692.62
2018-08-17T04:23:31.771Z,99690.22
2018-08-17T04:25:57.698Z,99692.00
2018-08-17T04:28:23.737Z,99694.95
2018-08-17T04:30:49.697Z,99694.33
2018-08-17T04:33:15.644Z,99697.13
2018-08-17T04:35:41.602Z,99699.20
2018-08-17T04:38:07.528Z,99697.23
2018-08-17T04:40:33.493Z,99699.54
2018-08-17T04:42:59.445Z,99701.53
2018-08-17T04:45:25.399Z,99701.17
2018-08-17T04:47:51.400Z,99704.25
2018-08-17T04:50:17.360Z,99704.55
2018-08-17T04:52:43.336Z,99703.63
2018-08-17T04:55:09.323Z,99703.67
2018-08-17T04:57:35.285Z,99702.60
2018-08-17T05:00:01.231Z,99716.30
2018-08-17T05:02:27.202Z,99705.97
2018-08-17T05:04:53.146Z,99715.01
2018-08-17T05:07:19.120Z,99709.81
2018-08-17T05:09:45.072Z,99714.04
2018-08-17T05:12:11.077Z,99714.00
2018-08-17T05:14:37.010Z,99713.52
2018-08-17T05:17:02.999Z,99720.23
2018-08-17T05:19:28.939Z,99718.48
2018-08-17T05:21:54.943Z,99712.45
2018-08-17T05:24:20.904Z,99714.91
2018-08-17T05:26:46.863Z,99717.42
2018-08-17T05:29:12.789Z,99716.50
2018-08-17T05:31:38.735Z,99718.81
2018-08-17T05:34:04.700Z,99725.08
2018-08-17T05:36:30.675Z,99723.23
2018-08-17T05:38:56.626Z,99721.84
2018-08-17T05:41:22.609Z,99724.09
2018-08-17T05:43:48.591Z,99726.67
2018-08-17T05:46:14.573Z,99726.03
2018-08-17T05:48:40.508Z,99725.09
2018-08-17T05:51:06.449Z,99726.02
2018-08-17T05:53:32.386Z,99722.88
2018-08-17T05:55:58.344Z,99725.02
2018-08-17T05:58:24.289Z,99720.84
2018-08-17T06:00:50.266Z,99729.23
2018-08-17T06:03:16.203Z,99721.08
2018-08-17T06:05:42.199Z,99723.68
2018-08-17T06:08:08.183Z,99719.33
2018-08-17T06:10:34.195Z,99719.29
2018-08-17T06:13:00.210Z,99720.08
2018-08-17T06:15:26.177Z,99717.05
2018-08-17T06:17:52.161Z,99719.80
2018-08-17T06:20:18.111Z,99720.01
2018-08-17T06:22:44.065Z,99718.78
2018-08-17T06:25:10.016Z,99723.81
2018-08-17T06:27:35.980Z,99721.46
2018-08-17T06:30:01.940Z,99719.48
2018-08-17T06:32:27.916Z,99719.41
2018-08-17T06:34:53.907Z,99722.09
2018-08-17T06:37:19.952Z,99722.98
2018-08-17T06:39:45.867Z,99719.14
2018-08-17T06:42:11.931Z,99718.80
2018-08-17T06:44:37.925Z,99710.56
2018-08-17T06:47:03.889Z,99720.95
2018-08-17T06:49:29.858Z,99718.00
2018-08-17T06:51:55.846Z,99723.62
2018-08-17T06:54:21.804Z,99723.41
2018-08-17T06:56:47.789Z,99718.46
2018-08-17T06:59:13.721Z,99726.59
2018-08-17T07:01:39.679Z,99720.66
2018-08-17T07:04:05.629Z,99723.59
2018-08-17T07:06:31.570Z,99720.80
2018-08-17T07:08:57.565Z,99723.44
2018-08-17T07:11:23.511Z,99722.39
2018-08-17T07:13:49.451Z,99721.30
2018-08-17T07:16:15.408Z,99725.97
2018-08-17T07:18:41.344Z,99723.22
2018-08-17T07:21:07.317Z,99725.84
2018-08-17T07:23:33.291Z,99730.27
2018-08-17T07:25:59.257Z,99727.14
2018-08-17T07:28:25.190Z,99730.38
2018-08-17T07:30:51.128Z,99724.19
2018-08-17T07:33:17.100Z,99728.17
2018-08-17T07:35:43.051Z,99740.14
2018-08-17T07:38:08.999Z,99735.70
2018-08-17T07:40:34.952Z,99741.47
2018-08-17T07:43:00.889Z,99737.05
2018-08-17T07:45:26.823Z,99742.14
2018-08-17T07:47:52.804Z,99740.69
2018-08-17T07:50:18.724Z,99739.81
2018-08-17T07:52:44.721Z,99737.39
2018-08-17T07:55:10.726Z,99739.47
2018-08-17T07:57:36.704Z,99741.19
2018-08-17T08:00:02.667Z,99745.08
2018-08-17T08:02:28.636Z,99742.33
2018-08-17T08:04:54.591Z,99740.94
2018-08-17T08:07:20.557Z,99740.73
2018-08-17T08:09:46.495Z,99738.41
2018-08-17T08:12:12.412Z,99734.47
2018-08-17T08:14:38.421Z,99733.36
2018-08-17T08:17:04.351Z,99737.84
2018-08-17T08:19:30.295Z,99735.47
2018-08-17T08:21:56.251Z,99735.73
2018-08-17T08:24:22.214Z,99740.94
2018-08-17T08:26:48.178Z,99742.37
2018-08-17T08:29:14.166Z,99737.02
2018-08-17T08:31:40.124Z,99738.92
2018-08-17T08:34:06.079Z,99742.34
2018-08-17T08:36:32.033Z,99737.35
2018-08-17T08:38:58.013Z,99739.09
2018-08-17T08:41:23.965Z,99745.61
2018-08-17T08:43:49.951Z,99743.72
2018-08-17T08:46:15.941Z,99745.77
2018-08-17T08:48:41.939Z,99739.26
2018-08-17T08:51:07.901Z,99736.64
2018-08-17T08:53:33.856Z,99741.56
2018-08-17T08:55:59.811Z,99748.59
2018-08-17T08:58:25.739Z,99742.02
2018-08-17T09:00:51.685Z,99743.31
2018-08-17T09:03:17.639Z,99744.63
2018-08-17T09:05:43.596Z,99739.18
2018-08-17T09:08:09.582Z,99736.34
2018-08-17T09:10:35.528Z,99738.08
2018-08-17T09:13:01.481Z,99741.26
2018-08-17T09:15:27.476Z,99733.38
2018-08-17T09:17:53.413Z,99738.02
2018-08-17T09:20:19.435Z,99728.00
2018-08-17T09:22:45.352Z,99729.55
2018-08-17T09:25:11.324Z,99730.88
2018-08-17T09:27:37.273Z,99732.21
2018-08-17T09:30:03.230Z,99726.52
2018-08-17T09:32:29.156Z,99730.38
2018-08-17T09:34:55.109Z,99725.89
2018-08-17T09:37:21.048Z,99719.53
2018-08-17T09:39:47.006Z,99711.72
2018-08-17T09:42:13.004Z,99715.66
2018-08-17T09:44:38.895Z,99713.88
2018-08-17T09:47:04.861Z,99707.73
2018-08-17T09:49:30.802Z,99712.09
2018-08-17T09:51:56.761Z,99701.58
2018-08-17T09:54:22.702Z,99705.02
2018-08-17T09:56:48.663Z,99703.59
2018-08-17T09:59:14.617Z,99702.99
2018-08-17T10:01:40.551Z,99697.80
2018-08-17T10:04:06.511Z,99692.20
2018-08-17T10:06:32.454Z,99688.31
2018-08-17T10:08:58.422Z,99683.00
2018-08-17T10:11:24.356Z,99682.42
2018-08-17T10:13:50.284Z,99683.00
2018-08-17T10:16:16.247Z,99687.77
2018-08-17T10:18:42.225Z,99683.80
2018-08-17T10:21:08.340Z,99684.86
2018-08-17T10:23:34.130Z,99687.80
2018-08-17T10:26:00.062Z,99689.39
2018-08-17T10:28:25.996Z,99687.28
2018-08-17T10:30:51.923Z,99680.54
2018-08-17T10:33:17.849Z,99686.08
2018-08-17T10:35:43.798Z,99679.82
2018-08-17T10:38:09.728Z,99684.30
2018-08-17T10:40:35.726Z,99681.21
2018-08-17T10:43:01.690Z,99688.87
2018-08-17T10:45:27.621Z,99681.36
2018-08-17T10:47:53.579Z,99686.80
2018-08-17T10:50:19.529Z,99683.97
2018-08-17T10:52:45.522Z,99681.13
2018-08-17T10:55:11.466Z,99679.13
2018-08-17T10:57:37.429Z,99680.66
2018-08-17T11:00:03.368Z,99672.85
2018-08-17T11:02:29.388Z,99677.12
2018-08-17T11:04:55.344Z,99668.38
2018-08-17T11:07:21.319Z,99672.59
2018-08-17T11:09:47.260Z,99673.66
2018-08-17T11:12:13.244Z,99672.27
2018-08-17T11:14:39.185Z,99673.09
2018-08-17T11:17:05.213Z,99672.16
2018-08-17T11:19:31.147Z,99666.83
2018-08-17T11:21:57.122Z,99670.61
2018-08-17T11:24:23.080Z,99665.66
2018-08-17T11:26:49.058Z,99661.97
2018-08-17T11:29:15.016Z,99668.27
2018-08-17T11:31:40.979Z,99665.87
2018-08-17T11:34:06.961Z,99669.91
2018-08-17T11:36:32.924Z,99669.67
2018-08-17T11:38:58.888Z,99672.27
2018-08-17T11:41:24.926Z,99670.77
2018-08-17T11:43:50.845Z,99673.23
2018-08-17T11:46:16.820Z,99672.59
2018-08-17T11:48:42.776Z,99664.81
2018-08-17T11:51:08.705Z,99669.77
2018-08-17T11:53:34.677Z,99666.00
2018-08-17T11:56:00.659Z,99669.79
2018-08-17T11:58:26.634Z,99673.36
2018-08-17T12:00:52.618Z,99665.30
2018-08-17T12:03:18.564Z,99662.59
2018-08-17T12:05:44.491Z,99657.37
2018-08-17T12:08:10.528Z,99658.77
2018-08-17T12:10:36.440Z,99656.30
2018-08-17T12:13:02.376Z,99659.73
2018-08-17T12:15:28.348Z,99659.14
2018-08-17T12:17:54.307Z,99652.27
2018-08-17T12:20:20.326Z,99648.83
2018-08-17T12:22:46.285Z,99645.66
2018-08-17T12:25:12.365Z,99648.03
2018-08-17T12:27:38.181Z,99648.73
2018-08-17T12:30:04.140Z,99644.75
2018-08-17T12:32:30.103Z,99647.23
2018-08-17T12:34:56.212Z,99652.07
2018-08-17T12:37:22.152Z,99645.67
2018-08-17T12:39:48.108Z,99650.08
2018-08-17T12:42:14.052Z,99649.83
2018-08-17T12:44:40.021Z,99647.08
2018-08-17T12:47:06.051Z,99652.64
2018-08-17T12:49:31.989Z,99652.31
2018-08-17T12:51:57.941Z,99650.19
2018-08-17T12:54:23.931Z,99651.95
2018-08-17T12:56:49.884Z,99648.53
2018-08-17T12:59:15.870Z,99648.27
2018-08-17T13:01:41.843Z,99644.95
2018-08-17T13:04:07.781Z,99644.75
2018-08-17T13:06:33.776Z,99637.66
2018-08-17T13:08:59.720Z,99630.20
2018-08-17T13:11:25.667Z,99633.17
2018-08-17T13:13:51.620Z,99631.25
2018-08-17T13:16:17.581Z,99630.67
2018-08-17T13:18:43.597Z,99630.57
2018-08-17T13:21:09.527Z,99630.54
2018-08-17T13:23:35.482Z,99626.07
2018-08-17T13:26:01.432Z,99629.03
2018-08-17T13:28:27.410Z,99629.14
2018-08-17T13:30:53.382Z,99626.27
2018-08-17T13:33:19.344Z,99623.94
2018-08-17T13:35:45.272Z,99622.15
2018-08-17T13:38:11.213Z,99617.54
2018-08-17T13:40:37.152Z,99615.77
2018-08-17T13:43:03.170Z,99620.39
2018-08-17T13:45:29.117Z,99612.93
2018-08-17T13:47:55.179Z,99611.99
2018-08-17T13:50:21.159Z,99608.69
2018-08-17T13:52:47.165Z,99612.47
2018-08-17T13:55:13.111Z,99608.06
2018-08-17T13:57:39.072Z,99609.85
2018-08-17T14:00:05.027Z,99604.76
2018-08-17T14:02:30.957Z,99604.87
2018-08-17T14:04:56.883Z,99604.65
2018-08-17T14:07:22.836Z,99600.41
2018-08-17T14:09:48.789Z,99592.81
2018-08-17T14:12:14.756Z,99591.17
2018-08-17T14:14:40.696Z,99585.59
2018-08-17T14:17:06.643Z,99590.09
2018-08-17T14:19:32.593Z,99584.55
2018-08-17T14:21:58.540Z,99588.92
2018-08-17T14:24:24.490Z,99585.96
2018-08-17T14:26:50.436Z,99586.92
2018-08-17T14:29:16.408Z,99583.96
2018-08-17T14:31:42.459Z,99585.02
2018-08-17T14:34:08.409Z,99581.95
2018-08-17T14:36:34.365Z,99579.32
2018-08-17T14:39:00.438Z,99583.47
2018-08-17T14:41:26.372Z,99576.47
2018-08-17T14:43:52.406Z,99579.08
2018-08-17T14:46:18.362Z,99577.08
2018-08-17T14:48:44.335Z,99579.20
2018-08-17T14:51:10.288Z,99572.69
2018-08-17T14:53:36.251Z,99573.41
2018-08-17T14:56:02.190Z,99570.55
2018-08-17T14:58:28.162Z,99567.95
2018-08-17T15:00:54.123Z,99577.55
2018-08-17T15:03:20.069Z,99569.86
2018-08-17T15:05:45.997Z,99573.66
2018-08-17T15:08:11.942Z,99577.19
2018-08-17T15:10:37.864Z,99567.88
2018-08-17T15:13:03.884Z,99570.80
2018-08-17T15:15:29.817Z,99578.95
2018-08-17T15:17:55.759Z,99573.87
2018-08-17T15:20:21.708Z,99580.38
2018-08-17T15:22:47.674Z,99577.78
2018-08-17T15:25:13.624Z,99585.92
2018-08-17T15:27:39.583Z,99581.68
2018-08-17T15:30:05.510Z,99582.39
2018-08-17T15:32:31.511Z,99578.86
2018-08-17T15:34:57.479Z,99583.79
2018-08-17T15:37:23.414Z,99576.84
2018-08-17T15:39:49.365Z,99575.66
2018-08-17T15:42:15.308Z,99578.61
2018-08-17T15:44:41.268Z,99577.88
2018-08-17T15:47:07.205Z,99577.53
2018-08-17T15:49:33.503Z,99570.44
2018-08-17T15:51:59.472Z,99573.04
2018-08-17T15:54:25.397Z,99567.00
2018-08-17T15:56:51.378Z,99565.48
2018-08-17T15:59:17.324Z,99569.50
2018-08-17T16:01:43.294Z,99564.27
2018-08-17T16:04:09.246Z,99561.79
2018-08-17T16:06:35.217Z,99559.44
2018-08-17T16:09:02.184Z,99560.36
2018-08-17T16:11:28.149Z,99556.46
2018-08-17T16:13:54.105Z,99549.95
2018-08-17T16:16:20.151Z,99549.36
2018-08-17T16:18:46.084Z,99544.50
2018-08-17T16:21:12.042Z,99544.50
2018-08-17T16:23:38.001Z,99544.16
2018-08-17T16:26:03.933Z,99544.63
2018-08-17T16:28:29.857Z,99545.00
2018-08-17T16:30:55.903Z,99547.59
2018-08-17T16:33:21.880Z,99550.20
2018-08-17T16:35:47.843Z,99552.09
2018-08-17T16:38:13.780Z,99552.21
2018-08-17T16:40:39.772Z,99552.68
2018-08-17T16:43:05.827Z,99563.34
2018-08-17T16:45:31.831Z,99558.50
2018-08-17T16:47:57.777Z,99559.90
2018-08-17T16:50:23.752Z,99555.99
2018-08-17T16:52:49.710Z,99562.62
2018-08-17T16:55:15.646Z,99566.66
2018-08-17T16:57:41.581Z,99562.62
2018-08-17T17:00:07.524Z,99567.70
2018-08-17T17:02:33.459Z,99570.19
2018-08-17T17:04:59.384Z,99566.75
2018-08-17T17:07:25.364Z,99572.20
2018-08-17T17:09:51.319Z,99578.27
2018-08-17T17:12:18.302Z,99579.66
2018-08-17T17:14:44.256Z,99577.78
2018-08-17T17:17:10.271Z,99577.78
2018-08-17T17:19:36.345Z,99578.37
2018-08-17T17:22:03.308Z,99580.14
2018-08-17T17:24:29.237Z,99579.64
2018-08-17T17:26:55.218Z,99579.17
2018-08-17T17:29:23.251Z,99582.62
2018-08-17T17:31:49.199Z,99578.34
2018-08-17T17:34:15.164Z,99582.27
2018-08-17T17:36:42.167Z,99585.12
2018-08-17T17:39:08.121Z,99584.73
2018-08-17T17:41:34.185Z,99589.24
2018-08-17T17:44:00.166Z,99586.77
2018-08-17T17:46:26.139Z,99583.45
2018-08-17T17:48:52.163Z,99589.70
2018-08-17T17:51:18.118Z,99592.19
2018-08-17T17:53:44.055Z,99594.80
2018-08-17T17:56:10.047Z,99587.11
2018-08-17T17:58:35.996Z,99592.78
2018-08-17T18:01:01.948Z,99602.48
2018-08-17T18:03:27.888Z,99601.55
2018-08-17T18:05:53.822Z,99606.73
2018-08-17T18:08:19.890Z,99603.69
2018-08-17T18:10:45.825Z,99614.56
2018-08-17T18:13:11.772Z,99622.34
2018-08-17T18:15:37.733Z,99623.20
2018-08-17T18:18:03.691Z,99619.30
2018-08-17T18:20:29.646Z,99629.00
2018-08-17T18:22:55.586Z,99633.13
2018-08-17T18:25:21.545Z,99635.14
2018-08-17T18:27:47.556Z,99637.16
2018-08-17T18:30:13.509Z,99640.72
2018-08-17T18:32:39.477Z,99642.95
2018-08-17T18:35:05.454Z,99655.27
2018-08-17T18:37:31.398Z,99653.98
2018-08-17T18:39:57.368Z,99663.53
2018-08-17T18:42:23.318Z,99672.87
2018-08-17T18:44:49.269Z,99667.58
2018-08-17T18:47:15.244Z,99664.61
2018-08-17T18:49:41.191Z,99665.31
2018-08-17T18:52:07.140Z,99670.52
2018-08-17T18:54:33.181Z,99678.59
2018-08-17T18:56:59.185Z,99670.66
2018-08-17T18:59:25.153Z,99670.05
2018-08-17T19:01:51.092Z,99671.36
2018-08-17T19:04:17.072Z,99680.45
2018-08-17T19:06:43.057Z,99684.73
2018-08-17T19:09:09.013Z,99683.77
2018-08-17T19:11:35.036Z,99688.50
2018-08-17T19:14:01.042Z,99689.46
2018-08-17T19:16:27.033Z,99692.53
2018-08-17T19:18:52.974Z,99695.50
2018-08-17T19:21:18.928Z,99705.44
2018-08-17T19:23:44.900Z,99696.43
2018-08-17T19:26:10.862Z,99700.71
2018-08-17T19:28:36.844Z,99702.23
2018-08-17T19:31:02.813Z,99699.63
2018-08-17T19:33:28.845Z,99705.90
2018-08-17T19:35:54.784Z,99709.22
2018-08-17T19:38:20.736Z,99708.64
2018-08-17T19:40:46.678Z,99709.92
2018-08-17T19:43:12.661Z,99715.00
2018-08-17T19:45:38.698Z,99713.72
2018-08-17T19:48:05.731Z,99715.24
2018-08-17T19:50:31.697Z,99715.12
2018-08-17T19:52:57.802Z,99712.04
2018-08-17T19:55:23.754Z,99712.26
2018-08-17T19:57:49.727Z,99715.59
2018-08-17T20:00:15.685Z,99715.13
2018-08-17T20:02:41.649Z,99715.38
2018-08-17T20:05:07.632Z,99725.07
2018-08-17T20:07:33.635Z,99724.24
2018-08-17T20:09:59.556Z,99729.02
2018-08-17T20:12:25.528Z,99728.66
2018-08-17T20:14:51.484Z,99732.81
2018-08-17T20:17:17.497Z,99728.00
2018-08-17T20:19:43.481Z,99731.31
2018-08-17T20:22:09.420Z,99733.63
2018-08-17T20:24:35.398Z,99739.76
2018-08-17T20:27:01.553Z,99735.50
2018-08-17T20:29:27.433Z,99745.67
2018-08-17T20:31:53.384Z,99747.06
2018-08-17T20:34:19.390Z,99745.67
2018-08-17T20:36:46.404Z,99752.13
2018-08-17T20:39:12.356Z,99763.97
2018-08-17T20:41:39.356Z,99766.57
2018-08-17T20:44:05.386Z,99773.08
2018-08-17T20:46:31.335Z,99775.67
2018-08-17T20:48:57.338Z,99783.81
2018-08-17T20:51:23.278Z,99786.11
2018-08-17T20:53:49.248Z,99789.48
2018-08-17T20:56:15.188Z,99793.72
2018-08-17T20:58:45.225Z,99787.04
2018-08-17T21:01:11.214Z,99794.41
2018-08-17T21:03:37.186Z,99800.53
2018-08-17T21:06:03.147Z,99804.44
2018-08-17T21:08:29.145Z,99818.06
2018-08-17T21:10:55.109Z,99822.60
2018-08-17T21:13:21.078Z,99837.29
2018-08-17T21:15:47.048Z,99851.22
2018-08-17T21:18:13.074Z,99862.09
2018-08-17T21:20:39.033Z,99881.41
2018-08-17T21:23:06.058Z,99894.80
2018-08-17T21:25:34.021Z,99906.17
2018-08-17T21:27:59.968Z,99920.20
2018-08-17T21:30:25.932Z,99924.77
2018-08-17T21:32:51.888Z,99935.95
2018-08-17T21:35:17.832Z,99942.59
2018-08-17T21:37:43.777Z,99957.15
2018-08-17T21:40:09.729Z,99960.97
2018-08-17T21:42:35.676Z,99961.37
2018-08-17T21:45:01.654Z,99959.47
2018-08-17T21:47:27.644Z,99966.16
2018-08-17T21:49:53.606Z,99966.95
2018-08-17T21:52:19.577Z,99971.55
2018-08-17T21:54:45.549Z,99982.20
2018-08-17T21:57:11.494Z,99995.02
2018-08-17T21:59:37.464Z,100004.64
2018-08-17T22:02:03.421Z,100004.91
2018-08-17T22:04:29.381Z,100021.44
2018-08-17T22:06:55.312Z,100041.77
2018-08-17T22:09:21.274Z,100048.51
2018-08-17T22:11:47.228Z,100054.30
2018-08-17T22:14:13.182Z,100058.55
2018-08-17T22:16:39.130Z,100067.22
2018-08-17T22:19:05.102Z,100071.09
2018-08-17T22:21:31.063Z,100083.14
2018-08-17T22:23:57.026Z,100089.64
2018-08-17T22:26:22.984Z,100105.66
2018-08-17T22:28:48.954Z,100122.70
2018-08-17T22:31:14.916Z,100142.83
2018-08-17T22:33:40.869Z,100170.13
2018-08-17T22:36:06.824Z,100194.62
2018-08-17T22:38:32.791Z,100196.84
2018-08-17T22:40:58.748Z,100195.53
2018-08-17T22:43:24.706Z,100192.55
2018-08-17T22:45:50.632Z,100205.02
2018-08-17T22:48:16.598Z,100235.58
2018-08-17T22:50:42.548Z,100250.25
2018-08-17T22:53:08.491Z,100265.49
2018-08-17T22:55:34.700Z,100281.80
2018-08-17T22:58:00.661Z,100281.95
2018-08-17T23:00:26.614Z,100292.27
2018-08-17T23:02:52.557Z,100301.57
2018-08-17T23:05:18.508Z,100290.23
2018-08-17T23:07:44.467Z,100279.67
2018-08-17T23:10:10.405Z,100267.38
2018-08-17T23:12:36.375Z,100271.58
2018-08-17T23:15:02.329Z,100269.73
2018-08-17T23:17:28.312Z,100261.95
2018-08-17T23:19:54.645Z,100264.76
2018-08-17T23:22:20.633Z,100256.95
2018-08-17T23:24:46.643Z,100261.23
2018-08-17T23:27:12.565Z,100266.08
2018-08-17T23:29:38.507Z,100255.66
2018-08-17T23:32:04.488Z,100250.89
2018-08-17T23:34:30.452Z,100253.06
2018-08-17T23:36:56.429Z,100235.77
2018-08-17T23:39:22.379Z,100224.72
2018-08-17T23:41:48.357Z,100215.74
2018-08-17T23:44:14.336Z,100218.74
2018-08-17T23:46:40.303Z,100217.97
2018-08-17T23:49:06.258Z,100209.65
2018-08-17T23:51:32.261Z,100210.13
2018-08-17T23:53:58.202Z,100209.14
2018-08-17T23:56:24.171Z,100206.75
2018-08-17T23:58:50.112Z,100203.70
